createdAt,value
2023-01-22T00:00:13.019Z,12.77
2023-01-22T00:02:40.953Z,13.38
2023-01-22T00:05:08.886Z,13.60
2023-01-22T00:07:36.446Z,13.02
2023-01-22T00:10:04.100Z,13.85
2023-01-22T00:12:31.700Z,12.65
2023-01-22T00:14:59.242Z,13.98
2023-01-22T00:17:26.835Z,12.65
2023-01-22T00:19:54.427Z,13.02
2023-01-22T00:22:22.646Z,13.38
2023-01-22T00:24:50.182Z,13.70
2023-01-22T00:27:17.830Z,13.05
2023-01-22T00:29:45.371Z,13.20
2023-01-22T00:32:12.980Z,12.82
2023-01-22T00:34:41.972Z,13.15
2023-01-22T00:37:09.516Z,13.18
2023-01-22T00:39:37.060Z,12.50
2023-01-22T00:42:04.693Z,12.65
2023-01-22T00:44:32.370Z,13.90
2023-01-22T00:46:59.916Z,13.20
2023-01-22T00:49:27.481Z,13.00
2023-01-22T00:51:55.061Z,12.25
2023-01-22T00:54:22.667Z,12.88
2023-01-22T00:56:50.206Z,13.77
2023-01-22T00:59:17.860Z,13.23
2023-01-22T01:01:45.492Z,13.55
2023-01-22T01:04:14.398Z,12.80
2023-01-22T01:06:42.113Z,13.38
2023-01-22T01:09:13.743Z,13.30
2023-01-22T01:11:41.334Z,13.20
2023-01-22T01:14:09.942Z,12.93
2023-01-22T01:16:37.527Z,12.80
2023-01-22T01:19:07.373Z,13.55
2023-01-22T01:21:35.070Z,13.40
2023-01-22T01:24:02.642Z,13.45
2023-01-22T01:26:30.224Z,13.20
2023-01-22T01:28:57.772Z,13.63
2023-01-22T01:31:28.604Z,14.70
2023-01-22T01:33:57.980Z,13.80
2023-01-22T01:36:48.644Z,12.77
2023-01-22T01:39:13.630Z,13.60
2023-01-22T01:41:41.204Z,13.93
2023-01-22T01:44:10.185Z,14.98
2023-01-22T01:46:40.776Z,13.98
2023-01-22T01:49:14.800Z,14.18
2023-01-22T01:51:42.351Z,13.98
2023-01-22T01:54:11.524Z,12.75
2023-01-22T01:56:46.270Z,13.95
2023-01-22T01:59:14.994Z,14.13
2023-01-22T02:01:42.809Z,14.18
2023-01-22T02:04:10.459Z,14.02
2023-01-22T02:06:38.288Z,14.48
2023-01-22T02:09:05.891Z,13.52
2023-01-22T02:11:36.032Z,13.82
2023-01-22T02:14:09.030Z,14.13
2023-01-22T02:16:36.976Z,13.15
2023-01-22T02:19:04.652Z,13.38
2023-01-22T02:21:38.106Z,14.50
2023-01-22T02:24:08.250Z,14.25
2023-01-22T02:26:36.204Z,14.05
2023-01-22T02:29:04.375Z,14.85
2023-01-22T02:31:32.320Z,15.00
2023-01-22T02:34:01.929Z,14.95
2023-01-22T02:36:31.467Z,13.80
2023-01-22T02:38:59.064Z,15.07
2023-01-22T02:41:26.843Z,15.05
2023-01-22T02:43:54.465Z,15.18
2023-01-22T02:46:25.898Z,14.77
2023-01-22T02:48:53.639Z,15.15
2023-01-22T02:51:21.776Z,14.45
2023-01-22T02:53:50.430Z,14.30
2023-01-22T02:56:18.851Z,14.80
2023-01-22T02:58:46.411Z,14.43
2023-01-22T03:01:22.101Z,14.23
2023-01-22T03:03:53.778Z,14.95
2023-01-22T03:06:22.236Z,15.30
2023-01-22T03:08:50.380Z,15.55
2023-01-22T03:11:17.917Z,15.30
2023-01-22T03:14:04.628Z,15.82
2023-01-22T03:16:51.671Z,15.65
2023-01-22T03:19:38.724Z,15.48
2023-01-22T03:22:12.461Z,15.68
2023-01-22T03:24:40.069Z,14.90
2023-01-22T03:27:07.681Z,15.00
2023-01-22T03:29:38.309Z,15.45
2023-01-22T03:32:07.787Z,16.35
2023-01-22T03:34:37.704Z,15.30
2023-01-22T03:37:07.459Z,15.40
2023-01-22T03:39:37.591Z,14.95
2023-01-22T03:42:05.335Z,15.35
2023-01-22T03:44:32.926Z,15.05
2023-01-22T03:47:00.527Z,15.45
2023-01-22T03:49:28.782Z,14.93
2023-01-22T03:51:57.189Z,15.43
2023-01-22T03:54:26.442Z,16.42
2023-01-22T03:56:56.740Z,15.57
2023-01-22T03:59:31.699Z,14.15
2023-01-22T04:01:59.370Z,14.10
2023-01-22T04:04:27.051Z,14.13
2023-01-22T04:06:54.700Z,15.38
2023-01-22T04:09:23.242Z,15.32
2023-01-22T04:11:51.193Z,15.43
2023-01-22T04:14:19.432Z,15.10
2023-01-22T04:16:56.018Z,15.93
2023-01-22T04:19:44.869Z,15.15
2023-01-22T04:22:44.485Z,14.57
2023-01-22T04:25:13.690Z,14.75
2023-01-22T04:27:41.309Z,15.07
2023-01-22T04:30:09.222Z,15.73
2023-01-22T04:32:37.135Z,14.80
2023-01-22T04:35:37.728Z,13.75
2023-01-22T04:38:05.828Z,14.40
2023-01-22T04:40:34.523Z,13.98
2023-01-22T04:43:06.154Z,14.48
2023-01-22T04:45:33.984Z,15.07
2023-01-22T04:48:01.684Z,15.23
2023-01-22T04:50:32.643Z,14.70
2023-01-22T04:53:00.939Z,15.43
2023-01-22T04:55:29.452Z,15.00
2023-01-22T04:58:02.451Z,14.88
2023-01-22T05:00:31.132Z,14.95
2023-01-22T05:03:01.804Z,14.93
2023-01-22T05:05:30.841Z,14.10
2023-01-22T05:07:58.852Z,15.02
2023-01-22T05:10:26.951Z,14.98
2023-01-22T05:12:54.920Z,15.20
2023-01-22T05:15:24.685Z,14.57
2023-01-22T05:17:55.687Z,15.13
2023-01-22T05:20:23.575Z,14.32
2023-01-22T05:22:51.148Z,14.30
2023-01-22T05:25:23.063Z,15.80
2023-01-22T05:27:50.702Z,15.35
2023-01-22T05:30:30.934Z,14.90
2023-01-22T05:33:01.695Z,15.03
2023-01-22T05:35:29.989Z,14.45
2023-01-22T05:37:58.108Z,15.48
2023-01-22T05:40:25.730Z,15.02
2023-01-22T05:42:54.041Z,15.20
2023-01-22T05:45:22.355Z,14.60
2023-01-22T05:48:12.992Z,14.93
2023-01-22T05:50:55.558Z,13.82
2023-01-22T05:53:23.129Z,14.70
2023-01-22T05:55:50.711Z,14.65
2023-01-22T05:58:18.329Z,15.07
2023-01-22T06:00:48.291Z,15.15
2023-01-22T06:03:17.490Z,13.45
2023-01-22T06:06:03.908Z,14.77
2023-01-22T06:08:34.130Z,14.68
2023-01-22T06:11:08.028Z,14.57
2023-01-22T06:13:35.691Z,14.80
2023-01-22T06:16:10.997Z,14.13
2023-01-22T06:18:59.555Z,14.35
2023-01-22T06:21:30.928Z,14.52
2023-01-22T06:23:58.787Z,13.38
2023-01-22T06:26:26.463Z,14.50
2023-01-22T06:28:55.132Z,14.88
2023-01-22T06:31:23.187Z,15.27
2023-01-22T06:33:50.903Z,14.05
2023-01-22T06:36:18.553Z,14.70
2023-01-22T06:38:46.156Z,14.63
2023-01-22T06:41:18.733Z,14.77
2023-01-22T06:43:48.741Z,13.68
2023-01-22T06:46:16.448Z,12.95
2023-01-22T06:49:16.352Z,12.32
2023-01-22T06:51:44.583Z,12.35
2023-01-22T06:54:13.633Z,11.90
2023-01-22T06:56:41.291Z,13.15
2023-01-22T06:59:08.915Z,11.50
2023-01-22T07:01:36.592Z,12.95
2023-01-22T07:04:04.305Z,11.98
2023-01-22T07:06:31.902Z,12.60
2023-01-22T07:08:59.482Z,13.32
2023-01-22T07:11:27.064Z,13.55
2023-01-22T07:13:54.647Z,13.70
2023-01-22T07:16:22.282Z,13.15
2023-01-22T07:18:49.867Z,13.68
2023-01-22T07:21:17.653Z,13.07
2023-01-22T07:23:45.204Z,13.43
2023-01-22T07:26:12.816Z,12.50
2023-01-22T07:28:40.368Z,14.00
2023-01-22T07:31:11.537Z,14.00
2023-01-22T07:33:39.243Z,13.77
2023-01-22T07:36:07.098Z,14.05
2023-01-22T07:38:34.631Z,12.75
2023-01-22T07:41:14.151Z,12.65
2023-01-22T07:43:49.270Z,12.60
2023-01-22T07:46:16.901Z,12.85
2023-01-22T07:48:45.869Z,12.52
2023-01-22T07:51:13.600Z,12.70
2023-01-22T07:53:42.639Z,13.70
2023-01-22T07:56:10.280Z,12.32
2023-01-22T07:58:39.189Z,12.68
2023-01-22T08:01:07.577Z,12.98
2023-01-22T08:03:37.674Z,12.48
2023-01-22T08:06:11.999Z,13.73
2023-01-22T08:08:39.636Z,13.20
2023-01-22T08:11:07.171Z,13.25
2023-01-22T08:13:34.688Z,14.32
2023-01-22T08:16:02.327Z,14.25
2023-01-22T08:18:29.908Z,12.95
2023-01-22T08:21:00.598Z,13.43
2023-01-22T08:23:28.360Z,14.80
2023-01-22T08:25:59.327Z,15.27
2023-01-22T08:28:27.176Z,15.65
2023-01-22T08:31:01.955Z,14.85
2023-01-22T08:33:29.905Z,16.02
2023-01-22T08:35:57.494Z,14.85
2023-01-22T08:38:26.033Z,15.25
2023-01-22T08:40:53.929Z,14.48
2023-01-22T08:43:21.642Z,14.73
2023-01-22T08:45:49.869Z,13.82
2023-01-22T08:48:17.772Z,14.15
2023-01-22T08:50:45.377Z,13.27
2023-01-22T08:53:12.915Z,13.05
2023-01-22T08:55:40.501Z,13.70
2023-01-22T08:58:08.102Z,14.07
2023-01-22T09:00:35.708Z,24.27
2023-01-22T09:03:03.274Z,14.63
2023-01-22T09:05:30.807Z,13.73
2023-01-22T09:07:58.348Z,14.27
2023-01-22T09:10:25.927Z,13.30
2023-01-22T09:12:53.515Z,14.10
2023-01-22T09:15:21.077Z,13.70
2023-01-22T09:17:48.597Z,13.82
2023-01-22T09:20:16.772Z,13.90
2023-01-22T09:22:48.349Z,12.52
2023-01-22T09:25:16.555Z,12.07
2023-01-22T09:27:44.116Z,11.77
2023-01-22T09:30:14.333Z,12.40
2023-01-22T09:32:42.038Z,13.88
2023-01-22T09:35:09.799Z,14.93
2023-01-22T09:37:37.338Z,14.85
2023-01-22T09:40:05.126Z,13.88
2023-01-22T09:42:37.484Z,14.60
2023-01-22T09:45:07.787Z,14.50
2023-01-22T09:47:37.669Z,15.60
2023-01-22T09:50:07.142Z,15.20
2023-01-22T09:52:37.851Z,15.35
2023-01-22T09:55:10.065Z,14.07
2023-01-22T09:57:45.851Z,13.80
2023-01-22T10:00:19.920Z,14.27
2023-01-22T10:02:49.841Z,15.50
2023-01-22T10:05:24.447Z,14.80
2023-01-22T10:07:53.507Z,14.95
2023-01-22T10:10:25.787Z,15.07
2023-01-22T10:13:16.339Z,14.23
2023-01-22T10:15:44.114Z,13.80
2023-01-22T10:18:21.026Z,13.45
2023-01-22T10:20:49.133Z,13.40
2023-01-22T10:23:21.159Z,13.25
2023-01-22T10:25:48.856Z,14.02
2023-01-22T10:28:16.513Z,14.23
2023-01-22T10:30:48.181Z,13.10
2023-01-22T10:35:44.191Z,11.93
2023-01-22T10:38:22.398Z,12.80
2023-01-22T10:40:54.006Z,12.25
2023-01-22T10:43:21.677Z,14.32
2023-01-22T10:45:56.400Z,13.93
2023-01-22T10:48:24.278Z,13.38
2023-01-22T10:51:12.473Z,13.32
2023-01-22T10:53:45.593Z,13.82
2023-01-22T10:56:14.168Z,13.95
2023-01-22T10:58:47.091Z,12.35
2023-01-22T11:01:43.915Z,13.80
2023-01-22T11:04:14.345Z,14.00
2023-01-22T11:06:44.462Z,13.25
2023-01-22T11:09:18.396Z,11.50
2023-01-22T11:11:49.252Z,12.20
2023-01-22T11:14:23.128Z,11.27
2023-01-22T11:16:52.562Z,10.77
2023-01-22T11:19:36.632Z,9.88
2023-01-22T11:22:07.010Z,8.27
2023-01-22T11:24:41.035Z,9.07
2023-01-22T11:27:23.745Z,8.93
2023-01-22T11:30:00.189Z,8.10
2023-01-22T11:32:30.670Z,7.18
2023-01-22T11:35:16.817Z,7.70
2023-01-22T11:37:45.588Z,7.78
2023-01-22T11:40:27.791Z,7.80
2023-01-22T11:43:01.407Z,6.90
2023-01-22T11:45:32.943Z,7.82
2023-01-22T11:48:20.775Z,7.07
2023-01-22T11:50:52.930Z,8.45
2023-01-22T11:53:41.096Z,8.18
2023-01-22T11:56:20.931Z,8.32
2023-01-22T11:58:48.498Z,8.02
2023-01-22T12:01:25.609Z,8.35
2023-01-22T12:04:05.390Z,8.52
2023-01-22T12:06:39.165Z,8.07
2023-01-22T12:09:14.105Z,8.55
2023-01-22T12:11:48.866Z,7.70
2023-01-22T12:14:25.557Z,8.95
2023-01-22T12:17:02.022Z,11.07
2023-01-22T12:19:29.635Z,7.88
2023-01-22T12:22:04.134Z,8.50
2023-01-22T12:24:38.108Z,10.30
2023-01-22T12:27:27.684Z,8.13
2023-01-22T12:30:18.506Z,7.70
2023-01-22T12:32:48.931Z,8.45
2023-01-22T12:35:20.651Z,8.80
2023-01-22T12:40:48.188Z,7.70
2023-01-22T12:43:17.629Z,7.47
2023-01-22T12:45:46.444Z,8.95
2023-01-22T12:48:23.514Z,8.98
2023-01-22T12:50:52.685Z,8.85
2023-01-22T12:53:30.787Z,7.70
2023-01-22T12:56:06.118Z,7.70
2023-01-22T12:58:35.941Z,8.10
2023-01-22T13:01:06.752Z,7.88
2023-01-22T13:03:35.049Z,7.22
2023-01-22T13:06:04.242Z,8.18
2023-01-22T13:08:38.102Z,7.72
2023-01-22T13:11:07.268Z,7.88
2023-01-22T13:13:39.912Z,7.80
2023-01-22T13:16:17.539Z,8.38
2023-01-22T13:18:47.050Z,7.95
2023-01-22T13:21:15.815Z,8.75
2023-01-22T13:23:47.502Z,8.73
2023-01-22T13:28:48.098Z,7.70
2023-01-22T13:31:17.054Z,7.85
2023-01-22T13:33:55.050Z,7.82
2023-01-22T13:36:22.852Z,7.30
2023-01-22T13:38:54.854Z,6.45
2023-01-22T13:41:30.120Z,8.35
2023-01-22T13:43:58.060Z,7.15
2023-01-22T13:46:27.137Z,7.55
2023-01-22T13:49:13.556Z,8.10
2023-01-22T13:51:41.550Z,7.95
2023-01-22T13:54:12.496Z,7.60
2023-01-22T13:56:41.209Z,7.35
2023-01-22T13:59:17.751Z,7.68
2023-01-22T14:01:45.580Z,7.70
2023-01-22T14:04:25.914Z,7.63
2023-01-22T14:06:53.517Z,8.38
2023-01-22T14:09:32.074Z,7.80
2023-01-22T14:12:00.416Z,8.13
2023-01-22T14:14:28.160Z,8.52
2023-01-22T14:16:55.688Z,8.65
2023-01-22T14:19:23.295Z,9.57
2023-01-22T14:21:50.840Z,8.45
2023-01-22T14:24:18.413Z,9.00
2023-01-22T14:26:45.971Z,10.50
2023-01-22T14:29:14.499Z,9.63
2023-01-22T14:31:42.162Z,9.15
2023-01-22T14:34:12.377Z,9.18
2023-01-22T14:36:39.962Z,9.40
2023-01-22T14:39:07.509Z,9.55
2023-01-22T14:41:35.083Z,10.05
2023-01-22T14:44:04.071Z,9.25
2023-01-22T14:46:31.622Z,10.43
2023-01-22T14:49:01.695Z,9.38
2023-01-22T14:51:29.252Z,10.48
2023-01-22T14:53:58.803Z,10.55
2023-01-22T14:56:26.480Z,9.45
2023-01-22T14:58:54.046Z,9.90
2023-01-22T15:01:22.747Z,10.00
2023-01-22T15:03:50.444Z,10.77
2023-01-22T15:06:18.002Z,10.60
2023-01-22T15:08:46.799Z,10.02
2023-01-22T15:11:14.410Z,8.48
2023-01-22T15:13:42.088Z,9.80
2023-01-22T15:16:10.999Z,10.48
2023-01-22T15:18:39.409Z,10.02
2023-01-22T15:21:07.072Z,9.75
2023-01-22T15:23:35.485Z,10.68
2023-01-22T15:26:05.443Z,11.30
2023-01-22T15:28:32.980Z,10.68
2023-01-22T15:31:07.636Z,10.45
2023-01-22T15:33:35.961Z,10.68
2023-01-22T15:36:04.517Z,10.88
2023-01-22T15:38:32.051Z,10.90
2023-01-22T15:41:03.533Z,10.23
2023-01-22T15:43:31.081Z,11.13
2023-01-22T15:45:58.673Z,10.43
2023-01-22T15:48:26.291Z,13.25
2023-01-22T15:50:53.957Z,10.60
2023-01-22T15:53:21.492Z,11.40
2023-01-22T15:55:49.897Z,10.65
2023-01-22T15:58:17.456Z,11.32
2023-01-22T16:00:45.016Z,10.95
2023-01-22T16:03:13.381Z,10.30
2023-01-22T16:05:40.907Z,10.48
2023-01-22T16:08:08.443Z,10.65
2023-01-22T16:10:37.036Z,10.90
2023-01-22T16:13:04.675Z,9.65
2023-01-22T16:15:32.502Z,10.88
2023-01-22T16:18:00.968Z,10.73
2023-01-22T16:20:28.768Z,11.18
2023-01-22T16:22:56.264Z,11.98
2023-01-22T16:25:23.848Z,11.10
2023-01-22T16:27:51.350Z,11.57
2023-01-22T16:30:19.339Z,11.60
2023-01-22T16:32:47.078Z,11.90
2023-01-22T16:35:14.674Z,12.50
2023-01-22T16:37:44.294Z,11.00
2023-01-22T16:40:12.649Z,11.68
2023-01-22T16:42:40.283Z,11.95
2023-01-22T16:45:08.065Z,12.27
2023-01-22T16:47:35.575Z,11.73
2023-01-22T16:50:03.142Z,11.60
2023-01-22T16:52:31.922Z,11.63
2023-01-22T16:54:59.476Z,11.52
2023-01-22T16:57:27.098Z,11.40
2023-01-22T16:59:54.699Z,11.88
2023-01-22T17:02:22.311Z,12.13
2023-01-22T17:04:49.915Z,12.27
2023-01-22T17:07:32.263Z,11.50
2023-01-22T17:10:01.182Z,11.48
2023-01-22T17:12:28.783Z,11.70
2023-01-22T17:14:56.349Z,12.95
2023-01-22T17:17:25.243Z,12.55
2023-01-22T17:19:52.791Z,11.95
2023-01-22T17:22:20.349Z,12.73
2023-01-22T17:24:48.042Z,12.48
2023-01-22T17:27:18.415Z,12.57
2023-01-22T17:29:46.008Z,12.57
2023-01-22T17:32:13.594Z,12.43
2023-01-22T17:34:41.959Z,12.57
2023-01-22T17:37:11.046Z,13.15
2023-01-22T17:39:39.358Z,13.13
2023-01-22T17:42:06.917Z,12.07
2023-01-22T17:44:34.832Z,12.77
2023-01-22T17:47:03.346Z,13.10
2023-01-22T17:49:32.445Z,13.63
2023-01-22T17:51:59.969Z,12.57
2023-01-22T17:54:27.488Z,13.20
2023-01-22T17:56:55.318Z,13.35
2023-01-22T17:59:24.163Z,13.10
2023-01-22T18:01:51.762Z,13.65
2023-01-22T18:04:19.445Z,12.88
2023-01-22T18:06:47.180Z,13.18
2023-01-22T18:09:14.827Z,13.05
2023-01-22T18:11:42.922Z,14.55
2023-01-22T18:14:17.279Z,14.52
2023-01-22T18:16:45.778Z,14.00
2023-01-22T18:19:13.464Z,15.15
2023-01-22T18:21:41.371Z,15.13
2023-01-22T18:24:09.762Z,14.52
2023-01-22T18:26:37.507Z,14.75
2023-01-22T18:29:05.449Z,14.30
2023-01-22T18:31:33.176Z,14.98
2023-01-22T18:34:02.297Z,14.95
2023-01-22T18:36:31.028Z,14.50
2023-01-22T18:39:02.327Z,15.27
2023-01-22T18:41:30.691Z,16.05
2023-01-22T18:43:59.664Z,16.55
2023-01-22T18:46:28.753Z,15.60
2023-01-22T18:48:57.651Z,15.85
2023-01-22T18:51:25.785Z,16.20
2023-01-22T18:53:53.616Z,16.17
2023-01-22T18:56:21.234Z,15.52
2023-01-22T18:58:48.779Z,17.20
2023-01-22T19:01:17.878Z,17.25
2023-01-22T19:03:50.004Z,15.80
2023-01-22T19:06:19.088Z,16.40
2023-01-22T19:08:49.744Z,16.27
2023-01-22T19:11:17.478Z,17.38
2023-01-22T19:13:45.238Z,15.82
2023-01-22T19:16:14.451Z,16.17
2023-01-22T19:18:42.473Z,15.35
2023-01-22T19:21:14.633Z,16.17
2023-01-22T19:23:44.594Z,15.32
2023-01-22T19:26:15.033Z,16.00
2023-01-22T19:28:42.620Z,16.27
2023-01-22T19:31:18.159Z,15.43
2023-01-22T19:33:46.495Z,15.95
2023-01-22T19:36:14.257Z,15.48
2023-01-22T19:38:41.838Z,15.07
2023-01-22T19:41:09.648Z,15.77
2023-01-22T19:43:37.387Z,15.68
2023-01-22T19:46:07.330Z,15.45
2023-01-22T19:48:35.541Z,16.80
2023-01-22T19:51:04.425Z,16.80
2023-01-22T19:53:32.248Z,14.98
2023-01-22T19:55:59.866Z,15.10
2023-01-22T19:58:28.257Z,16.55
2023-01-22T20:00:58.025Z,16.20
2023-01-22T20:03:27.033Z,16.88
2023-01-22T20:05:54.636Z,16.13
2023-01-22T20:08:22.277Z,16.33
2023-01-22T20:10:58.086Z,17.30
2023-01-22T20:13:25.674Z,17.40
2023-01-22T20:15:53.943Z,17.42
2023-01-22T20:18:21.569Z,16.77
2023-01-22T20:20:53.755Z,18.08
2023-01-22T20:23:21.632Z,16.55
2023-01-22T20:25:50.079Z,16.58
2023-01-22T20:28:18.547Z,17.98
2023-01-22T20:30:46.489Z,17.13
2023-01-22T20:33:14.073Z,17.20
2023-01-22T20:35:42.483Z,17.17
2023-01-22T20:38:10.497Z,17.02
2023-01-22T20:40:39.059Z,18.15
2023-01-22T20:43:06.663Z,19.15
2023-01-22T20:45:34.257Z,18.23
2023-01-22T20:48:02.415Z,17.45
2023-01-22T20:50:29.965Z,17.50
2023-01-22T20:52:57.551Z,18.23
2023-01-22T20:55:26.173Z,17.48
2023-01-22T20:57:53.746Z,17.40
2023-01-22T21:00:21.406Z,18.10
2023-01-22T21:02:50.618Z,16.90
2023-01-22T21:05:18.541Z,18.40
2023-01-22T21:07:46.508Z,18.13
2023-01-22T21:10:14.534Z,18.23
2023-01-22T21:12:42.592Z,17.00
2023-01-22T21:15:10.424Z,17.65
2023-01-22T21:17:38.015Z,18.55
2023-01-22T21:20:06.172Z,18.90
2023-01-22T21:22:33.713Z,18.73
2023-01-22T21:25:01.284Z,18.30
2023-01-22T21:27:29.008Z,19.02
2023-01-22T21:29:57.793Z,18.60
2023-01-22T21:32:25.438Z,19.52
2023-01-22T21:34:52.996Z,17.77
2023-01-22T21:37:20.542Z,19.08
2023-01-22T21:39:48.145Z,17.42
2023-01-22T21:42:34.305Z,19.13
2023-01-22T21:45:20.664Z,19.25
2023-01-22T21:47:48.204Z,18.90
2023-01-22T21:50:15.914Z,18.80
2023-01-22T21:52:45.241Z,17.98
2023-01-22T21:55:14.815Z,19.05
2023-01-22T21:57:44.060Z,17.77
2023-01-22T22:00:11.950Z,18.75
2023-01-22T22:02:39.511Z,17.73
2023-01-22T22:05:07.328Z,17.58
2023-01-22T22:07:34.892Z,16.85
2023-01-22T22:10:02.574Z,17.70
2023-01-22T22:12:31.497Z,17.95
2023-01-22T22:14:59.076Z,17.35
2023-01-22T22:17:26.614Z,19.00
2023-01-22T22:19:54.151Z,18.63
2023-01-22T22:22:21.707Z,17.15
2023-01-22T22:24:49.282Z,18.23
2023-01-22T22:27:16.828Z,18.92
2023-01-22T22:29:44.421Z,18.38
2023-01-22T22:32:12.008Z,16.65
2023-01-22T22:34:39.618Z,17.63
2023-01-22T22:37:07.204Z,19.17
2023-01-22T22:39:34.814Z,17.52
2023-01-22T22:42:02.389Z,17.55
2023-01-22T22:44:30.239Z,18.35
2023-01-22T22:46:57.776Z,18.30
2023-01-22T22:49:25.353Z,18.60
2023-01-22T22:51:52.907Z,19.55
2023-01-22T22:54:20.631Z,19.30
2023-01-22T22:56:49.248Z,18.88
2023-01-22T22:59:19.154Z,19.30
2023-01-22T23:01:47.006Z,18.20
2023-01-22T23:04:14.636Z,19.30
2023-01-22T23:06:43.870Z,17.83
2023-01-22T23:09:12.548Z,18.60
2023-01-22T23:11:40.183Z,18.02
2023-01-22T23:14:08.061Z,18.08
2023-01-22T23:16:37.295Z,18.48
2023-01-22T23:19:06.314Z,17.63
2023-01-22T23:21:36.237Z,18.13
2023-01-22T23:24:04.163Z,18.35
2023-01-22T23:26:31.789Z,17.52
2023-01-22T23:29:01.996Z,18.55
2023-01-22T23:31:31.244Z,17.92
2023-01-22T23:33:59.643Z,17.90
2023-01-22T23:36:27.337Z,19.65
2023-01-22T23:38:55.611Z,18.38
2023-01-22T23:41:23.819Z,19.02
2023-01-22T23:43:51.623Z,18.23
2023-01-22T23:46:26.144Z,17.73
2023-01-22T23:48:54.644Z,17.88
2023-01-22T23:51:22.333Z,18.48
2023-01-22T23:53:53.943Z,18.48
2023-01-22T23:58:49.330Z,17.88
